KCLK/CLK METAR and TAF weather

Enter ICAO airport designator
Station Type Date Time Source
KCLK METAR 2022/07/03 14:15 UTC NOAA

KCLK 031415Z AUTO 14010KT 10SM CLR 28/21 A3004 RMK AO2


Station Type Date Time Source
KCLK Decoded METAR 2022/07/03 14:15 UTC NOAA

Clinton, Clinton Regional Airport, OK, United States (KCLK) 35-32-17N 098-55-17W
Jul 03, 2022 - 10:15 AM EDT / 2022.07.03 1415 UTC
Wind: from the SE (140 degrees) at 12 MPH (10 KT):0
Visibility: 10 mile(s):0
Sky conditions: clear
Temperature: 82 F (28 C)
Dew Point: 69 F (21 C)
Relative Humidity: 65%
Pressure (altimeter): 30.04 in. Hg (1017 hPa)
ob: KCLK 031415Z AUTO 14010KT 10SM CLR 28/21 A3004 RMK AO2
cycle: 14

Station Type Date Time Source
KCLK TAF UTC NOAA

Error!

Example: see airport list